Terminal Aerodrome Forecast
Issued by NWS

Home | Current Version | Previous Version | Text Only | Print | Product List | Glossary Off
Versions: 1 2 3 4 5 6 7 8 9 10 11 12

000
FTUS43 KICT 251122
TAFCNU
TAF
KCNU 251122Z 2512/2612 16005KT P6SM SKC
      TEMPO 2512/2513 5SM BR
     FM251400 21008KT P6SM SCT250
     FM260200 16005KT P6SM SCT250=

USA.gov is the U.S. government's official web portal to all federal, state and local government web resources and services.